sensor_id;sensor_type;location;lat;lon;timestamp;pressure;altitude;pressure_sealevel;temperature;humidity
41513;BME280;27244;59.940;30.280;2023-05-07T00:00:59;102834.69;;;22.93;25.63
41513;BME280;27244;59.940;30.280;2023-05-07T00:03:26;102828.25;;;22.92;25.34
41513;BME280;27244;59.940;30.280;2023-05-07T00:05:53;102834.28;;;22.94;25.62
41513;BME280;27244;59.940;30.280;2023-05-07T00:08:20;102836.28;;;22.94;25.51
41513;BME280;27244;59.940;30.280;2023-05-07T00:10:48;102835.09;;;22.95;25.41
41513;BME280;27244;59.940;30.280;2023-05-07T00:13:15;102833.47;;;22.94;25.54
41513;BME280;27244;59.940;30.280;2023-05-07T00:15:42;102831.47;;;22.94;25.43
41513;BME280;27244;59.940;30.280;2023-05-07T00:18:09;102824.66;;;22.95;25.56
41513;BME280;27244;59.940;30.280;2023-05-07T00:20:36;102827.84;;;22.94;25.59
41513;BME280;27244;59.940;30.280;2023-05-07T00:23:03;102833.91;;;22.96;25.70
41513;BME280;27244;59.940;30.280;2023-05-07T00:25:30;102831.47;;;22.94;25.65
41513;BME280;27244;59.940;30.280;2023-05-07T00:27:58;102838.75;;;22.95;25.62
41513;BME280;27244;59.940;30.280;2023-05-07T00:30:29;102828.25;;;22.92;25.65
41513;BME280;27244;59.940;30.280;2023-05-07T00:32:56;102833.47;;;22.94;25.63
41513;BME280;27244;59.940;30.280;2023-05-07T00:35:23;102831.88;;;22.93;25.69
41513;BME280;27244;59.940;30.280;2023-05-07T00:37:49;102830.66;;;22.94;25.75
41513;BME280;27244;59.940;30.280;2023-05-07T00:40:17;102837.09;;;22.94;25.74
41513;BME280;27244;59.940;30.280;2023-05-07T00:42:43;102836.28;;;22.94;25.87
41513;BME280;27244;59.940;30.280;2023-05-07T00:45:13;102841.56;;;22.95;25.61
41513;BME280;27244;59.940;30.280;2023-05-07T00:47:41;102839.94;;;22.94;25.76
41513;BME280;27244;59.940;30.280;2023-05-07T00:50:09;102839.94;;;22.94;25.64
41513;BME280;27244;59.940;30.280;2023-05-07T00:52:37;102831.47;;;22.94;25.74
41513;BME280;27244;59.940;30.280;2023-05-07T00:55:06;102837.91;;;22.95;25.69
41513;BME280;27244;59.940;30.280;2023-05-07T00:57:36;102834.28;;;22.94;25.89
41513;BME280;27244;59.940;30.280;2023-05-07T01:00:04;102835.47;;;22.93;25.69
41513;BME280;27244;59.940;30.280;2023-05-07T01:02:32;102835.91;;;22.95;25.67
41513;BME280;27244;59.940;30.280;2023-05-07T01:05:00;102832.66;;;22.93;25.76
41513;BME280;27244;59.940;30.280;2023-05-07T01:07:27;102838.28;;;22.93;25.91
41513;BME280;27244;59.940;30.280;2023-05-07T01:09:55;102841.56;;;22.95;25.97
41513;BME280;27244;59.940;30.280;2023-05-07T01:12:22;102833.47;;;22.94;25.88
41513;BME280;27244;59.940;30.280;2023-05-07T01:14:50;102843.56;;;22.95;25.89
41513;BME280;27244;59.940;30.280;2023-05-07T01:17:17;102834.28;;;22.94;25.94
41513;BME280;27244;59.940;30.280;2023-05-07T01:19:47;102845.19;;;22.96;25.95
41513;BME280;27244;59.940;30.280;2023-05-07T01:22:16;102844.38;;;22.95;25.95
41513;BME280;27244;59.940;30.280;2023-05-07T01:24:50;102844.38;;;22.95;25.93
41513;BME280;27244;59.940;30.280;2023-05-07T01:27:17;102842.75;;;22.94;25.91
41513;BME280;27244;59.940;30.280;2023-05-07T01:29:46;102848.00;;;22.96;26.02
41513;BME280;27244;59.940;30.280;2023-05-07T01:32:13;102847.19;;;22.95;25.99
41513;BME280;27244;59.940;30.280;2023-05-07T01:34:42;102846.34;;;22.91;26.04
41513;BME280;27244;59.940;30.280;2023-05-07T01:37:11;102846.38;;;22.95;25.87
41513;BME280;27244;59.940;30.280;2023-05-07T01:39:39;102856.44;;;22.96;25.87
41513;BME280;27244;59.940;30.280;2023-05-07T01:42:07;102854.44;;;22.96;25.94
41513;BME280;27244;59.940;30.280;2023-05-07T01:44:35;102852.38;;;22.93;25.90
41513;BME280;27244;59.940;30.280;2023-05-07T01:47:02;102855.19;;;22.93;26.26
41513;BME280;27244;59.940;30.280;2023-05-07T01:49:30;102855.63;;;22.95;25.88
41513;BME280;27244;59.940;30.280;2023-05-07T01:51:57;102859.22;;;22.92;25.98
41513;BME280;27244;59.940;30.280;2023-05-07T01:54:25;102858.44;;;22.95;25.94
41513;BME280;27244;59.940;30.280;2023-05-07T01:56:55;102854.81;;;22.95;25.90
41513;BME280;27244;59.940;30.280;2023-05-07T01:59:24;102849.19;;;22.95;25.88
41513;BME280;27244;59.940;30.280;2023-05-07T02:01:51;102851.59;;;22.93;25.84
41513;BME280;27244;59.940;30.280;2023-05-07T02:04:18;102858.81;;;22.94;25.84
41513;BME280;27244;59.940;30.280;2023-05-07T02:06:46;102861.25;;;22.95;25.95
41513;BME280;27244;59.940;30.280;2023-05-07T02:09:13;102863.25;;;22.95;25.93
41513;BME280;27244;59.940;30.280;2023-05-07T02:11:44;102864.84;;;22.92;26.02
41513;BME280;27244;59.940;30.280;2023-05-07T02:14:12;102855.59;;;22.92;26.07
41513;BME280;27244;59.940;30.280;2023-05-07T02:16:40;102856.81;;;22.94;26.09
41513;BME280;27244;59.940;30.280;2023-05-07T02:19:08;102860.41;;;22.91;26.07
41513;BME280;27244;59.940;30.280;2023-05-07T02:21:35;102864.84;;;22.92;26.13
41513;BME280;27244;59.940;30.280;2023-05-07T02:24:02;102866.44;;;22.93;26.01
41513;BME280;27244;59.940;30.280;2023-05-07T02:26:29;102864.84;;;22.92;26.03
41513;BME280;27244;59.940;30.280;2023-05-07T02:28:55;102851.13;;;22.87;25.90
41513;BME280;27244;59.940;30.280;2023-05-07T02:31:22;102866.03;;;22.91;25.98
41513;BME280;27244;59.940;30.280;2023-05-07T02:33:51;102857.59;;;22.91;25.98
41513;BME280;27244;59.940;30.280;2023-05-07T02:36:17;102870.47;;;22.92;26.00
41513;BME280;27244;59.940;30.280;2023-05-07T02:38:51;102861.63;;;22.94;26.04
41513;BME280;27244;59.940;30.280;2023-05-07T02:41:18;102860.41;;;22.91;25.83
41513;BME280;27244;59.940;30.280;2023-05-07T02:43:45;102863.63;;;22.93;25.78
41513;BME280;27244;59.940;30.280;2023-05-07T02:46:12;102864.84;;;22.92;26.02
41513;BME280;27244;59.940;30.280;2023-05-07T02:48:44;102860.03;;;22.93;26.03
41513;BME280;27244;59.940;30.280;2023-05-07T02:51:12;102853.19;;;22.94;25.96
41513;BME280;27244;59.940;30.280;2023-05-07T02:53:41;102862.47;;;22.98;25.99
41513;BME280;27244;59.940;30.280;2023-05-07T02:56:08;102851.16;;;22.91;26.20
41513;BME280;27244;59.940;30.280;2023-05-07T02:58:35;102855.97;;;22.90;26.07
41513;BME280;27244;59.940;30.280;2023-05-07T03:01:03;102855.16;;;22.90;26.08
41513;BME280;27244;59.940;30.280;2023-05-07T03:03:35;102866.03;;;22.91;26.13
41513;BME280;27244;59.940;30.280;2023-05-07T03:06:02;102864.41;;;22.90;25.94
41513;BME280;27244;59.940;30.280;2023-05-07T03:08:31;102867.22;;;22.90;26.10
41513;BME280;27244;59.940;30.280;2023-05-07T03:10:58;102876.47;;;22.91;26.03
41513;BME280;27244;59.940;30.280;2023-05-07T03:13:25;102877.66;;;22.90;26.14
41513;BME280;27244;59.940;30.280;2023-05-07T03:15:52;102877.28;;;22.91;26.14
41513;BME280;27244;59.940;30.280;2023-05-07T03:18:19;102890.97;;;22.89;26.04
41513;BME280;27244;59.940;30.280;2023-05-07T03:20:46;102883.28;;;22.90;26.01
41513;BME280;27244;59.940;30.280;2023-05-07T03:23:12;102888.94;;;22.90;26.01
41513;BME280;27244;59.940;30.280;2023-05-07T03:25:41;102890.56;;;22.91;26.05
41513;BME280;27244;59.940;30.280;2023-05-07T03:28:08;102897.38;;;22.90;25.96
41513;BME280;27244;59.940;30.280;2023-05-07T03:30:46;102891.75;;;22.90;25.92
41513;BME280;27244;59.940;30.280;2023-05-07T03:33:13;102889.75;;;22.90;25.95
41513;BME280;27244;59.940;30.280;2023-05-07T03:35:41;102897.38;;;22.90;26.02
41513;BME280;27244;59.940;30.280;2023-05-07T03:38:09;102881.28;;;22.90;25.90
41513;BME280;27244;59.940;30.280;2023-05-07T03:40:37;102892.16;;;22.88;25.98
41513;BME280;27244;59.940;30.280;2023-05-07T03:43:06;102882.91;;;22.91;26.04
41513;BME280;27244;59.940;30.280;2023-05-07T03:45:36;102901.00;;;22.90;26.11
41513;BME280;27244;59.940;30.280;2023-05-07T03:48:14;102897.34;;;22.86;26.02
41513;BME280;27244;59.940;30.280;2023-05-07T03:50:41;102903.00;;;22.90;25.91
41513;BME280;27244;59.940;30.280;2023-05-07T03:53:08;102900.16;;;22.86;26.04
41513;BME280;27244;59.940;30.280;2023-05-07T03:55:38;102904.59;;;22.87;25.93
41513;BME280;27244;59.940;30.280;2023-05-07T03:58:06;102904.63;;;22.91;26.04
41513;BME280;27244;59.940;30.280;2023-05-07T04:00:33;102909.03;;;22.88;26.11
41513;BME280;27244;59.940;30.280;2023-05-07T04:03:12;102914.66;;;22.88;26.08
41513;BME280;27244;59.940;30.280;2023-05-07T04:05:38;102906.59;;;22.87;26.05
41513;BME280;27244;59.940;30.280;2023-05-07T04:08:05;102904.22;;;22.89;26.06
41513;BME280;27244;59.940;30.280;2023-05-07T04:10:39;102902.19;;;22.86;25.97
41513;BME280;27244;59.940;30.280;2023-05-07T04:13:11;102915.50;;;22.92;25.96
41513;BME280;27244;59.940;30.280;2023-05-07T04:15:38;102917.88;;;22.90;26.05
41513;BME280;27244;59.940;30.280;2023-05-07T04:18:10;102920.69;;;22.90;26.10
41513;BME280;27244;59.940;30.280;2023-05-07T04:20:38;102919.50;;;22.91;25.95
41513;BME280;27244;59.940;30.280;2023-05-07T04:23:09;102913.88;;;22.91;26.05
41513;BME280;27244;59.940;30.280;2023-05-07T04:25:36;102917.88;;;22.90;26.07
41513;BME280;27244;59.940;30.280;2023-05-07T04:28:19;102921.94;;;22.93;26.08
41513;BME280;27244;59.940;30.280;2023-05-07T04:30:46;102915.06;;;22.90;26.02
41513;BME280;27244;59.940;30.280;2023-05-07T04:33:14;102923.91;;;22.89;25.79
41513;BME280;27244;59.940;30.280;2023-05-07T04:35:42;102918.28;;;22.89;26.12
41513;BME280;27244;59.940;30.280;2023-05-07T04:38:09;102918.66;;;22.87;26.26
41513;BME280;27244;59.940;30.280;2023-05-07T04:40:36;102921.91;;;22.89;26.12
41513;BME280;27244;59.940;30.280;2023-05-07T04:43:05;102930.34;;;22.89;26.20
41513;BME280;27244;59.940;30.280;2023-05-07T04:45:40;102928.31;;;22.90;26.04
41513;BME280;27244;59.940;30.280;2023-05-07T04:48:08;102923.91;;;22.89;26.28
41513;BME280;27244;59.940;30.280;2023-05-07T04:50:38;102927.53;;;22.89;26.28
41513;BME280;27244;59.940;30.280;2023-05-07T04:53:06;102931.13;;;22.90;26.25
41513;BME280;27244;59.940;30.280;2023-05-07T04:55:33;102935.59;;;22.91;26.18
41513;BME280;27244;59.940;30.280;2023-05-07T04:58:01;102933.97;;;22.90;26.22
41513;BME280;27244;59.940;30.280;2023-05-07T05:00:31;102937.59;;;22.90;26.25
41513;BME280;27244;59.940;30.280;2023-05-07T05:03:01;102935.59;;;22.91;26.18
41513;BME280;27244;59.940;30.280;2023-05-07T05:05:29;102927.09;;;22.87;26.17
41513;BME280;27244;59.940;30.280;2023-05-07T05:07:56;102929.09;;;22.87;26.40
41513;BME280;27244;59.940;30.280;2023-05-07T05:10:24;102942.41;;;22.90;26.17
41513;BME280;27244;59.940;30.280;2023-05-07T05:12:51;102940.41;;;22.90;26.17
41513;BME280;27244;59.940;30.280;2023-05-07T05:15:19;102936.38;;;22.88;26.25
41513;BME280;27244;59.940;30.280;2023-05-07T05:17:46;102937.16;;;22.88;26.24
41513;BME280;27244;59.940;30.280;2023-05-07T05:20:15;102944.84;;;22.91;26.42
41513;BME280;27244;59.940;30.280;2023-05-07T05:22:42;102937.59;;;22.90;26.36
41513;BME280;27244;59.940;30.280;2023-05-07T05:25:11;102943.22;;;22.90;26.33
41513;BME280;27244;59.940;30.280;2023-05-07T05:27:38;102946.03;;;22.90;26.29
41513;BME280;27244;59.940;30.280;2023-05-07T05:30:06;102940.00;;;22.88;26.34
41513;BME280;27244;59.940;30.280;2023-05-07T05:32:34;102945.22;;;22.90;26.27
41513;BME280;27244;59.940;30.280;2023-05-07T05:35:01;102946.84;;;22.91;26.05
41513;BME280;27244;59.940;30.280;2023-05-07T05:37:30;102946.03;;;22.90;26.01
41513;BME280;27244;59.940;30.280;2023-05-07T05:39:58;102951.66;;;22.90;26.15
41513;BME280;27244;59.940;30.280;2023-05-07T05:42:28;102952.47;;;22.91;26.07
41513;BME280;27244;59.940;30.280;2023-05-07T05:44:55;102953.28;;;22.91;26.01
41513;BME280;27244;59.940;30.280;2023-05-07T05:47:22;102954.47;;;22.90;26.21
41513;BME280;27244;59.940;30.280;2023-05-07T05:49:52;102951.66;;;22.90;26.20
41513;BME280;27244;59.940;30.280;2023-05-07T05:52:19;102963.72;;;22.91;26.30
41513;BME280;27244;59.940;30.280;2023-05-07T05:54:50;102961.31;;;22.89;26.53
41513;BME280;27244;59.940;30.280;2023-05-07T05:57:18;102956.88;;;22.88;26.44
41513;BME280;27244;59.940;30.280;2023-05-07T05:59:46;102955.25;;;22.87;26.37
41513;BME280;27244;59.940;30.280;2023-05-07T06:02:15;102959.69;;;22.88;26.48
41513;BME280;27244;59.940;30.280;2023-05-07T06:04:48;102958.47;;;22.86;26.43
41513;BME280;27244;59.940;30.280;2023-05-07T06:07:18;102956.44;;;22.86;26.23
41513;BME280;27244;59.940;30.280;2023-05-07T06:09:45;102964.09;;;22.86;26.32
41513;BME280;27244;59.940;30.280;2023-05-07T06:12:13;102972.13;;;22.87;26.26
41513;BME280;27244;59.940;30.280;2023-05-07T06:14:42;102972.13;;;22.87;26.23
41513;BME280;27244;59.940;30.280;2023-05-07T06:17:11;102963.66;;;22.84;26.14
41513;BME280;27244;59.940;30.280;2023-05-07T06:19:38;102970.91;;;22.85;26.11
41513;BME280;27244;59.940;30.280;2023-05-07T06:22:05;102973.72;;;22.85;26.15
41513;BME280;27244;59.940;30.280;2023-05-07T06:24:33;102974.91;;;22.84;26.35
41513;BME280;27244;59.940;30.280;2023-05-07T06:27:00;102974.13;;;22.87;26.16
41513;BME280;27244;59.940;30.280;2023-05-07T06:29:30;102974.13;;;22.87;25.96
41513;BME280;27244;59.940;30.280;2023-05-07T06:32:06;102984.66;;;22.93;26.01
41513;BME280;27244;59.940;30.280;2023-05-07T06:34:33;102979.38;;;22.88;25.75
41513;BME280;27244;59.940;30.280;2023-05-07T06:37:00;102973.75;;;22.88;25.93
41513;BME280;27244;59.940;30.280;2023-05-07T06:39:39;102972.94;;;22.88;26.17
41513;BME280;27244;59.940;30.280;2023-05-07T06:42:06;102978.19;;;22.89;26.16
41513;BME280;27244;59.940;30.280;2023-05-07T06:44:40;102970.94;;;22.88;26.22
41513;BME280;27244;59.940;30.280;2023-05-07T06:47:10;102974.34;;;23.08;25.79
41513;BME280;27244;59.940;30.280;2023-05-07T06:49:39;102968.97;;;22.92;26.03
41513;BME280;27244;59.940;30.280;2023-05-07T06:52:05;102972.56;;;22.89;26.15
41513;BME280;27244;59.940;30.280;2023-05-07T06:54:33;102967.72;;;22.90;26.21
41513;BME280;27244;59.940;30.280;2023-05-07T06:57:00;102967.72;;;22.90;26.21
41513;BME280;27244;59.940;30.280;2023-05-07T06:59:28;102958.91;;;22.91;26.15
41513;BME280;27244;59.940;30.280;2023-05-07T07:01:56;102962.91;;;22.90;26.13
41513;BME280;27244;59.940;30.280;2023-05-07T07:04:23;102966.16;;;22.92;26.02
41513;BME280;27244;59.940;30.280;2023-05-07T07:06:58;102969.31;;;22.87;26.17
41513;BME280;27244;59.940;30.280;2023-05-07T07:09:25;102968.16;;;22.92;25.98
41513;BME280;27244;59.940;30.280;2023-05-07T07:11:53;102959.72;;;22.92;25.98
41513;BME280;27244;59.940;30.280;2023-05-07T07:14:23;102958.91;;;22.91;26.16
41513;BME280;27244;59.940;30.280;2023-05-07T07:16:52;102971.81;;;22.92;26.05
41513;BME280;27244;59.940;30.280;2023-05-07T07:19:22;102943.53;;;22.82;25.98
41513;BME280;27244;59.940;30.280;2023-05-07T07:21:52;102963.34;;;22.92;25.98
41513;BME280;27244;59.940;30.280;2023-05-07T07:24:18;102964.53;;;22.91;25.65
41513;BME280;27244;59.940;30.280;2023-05-07T07:26:49;102969.41;;;22.94;25.67
41513;BME280;27244;59.940;30.280;2023-05-07T07:29:17;102962.13;;;22.93;25.50
41513;BME280;27244;59.940;30.280;2023-05-07T07:31:45;102959.72;;;22.92;25.50
41513;BME280;27244;59.940;30.280;2023-05-07T07:34:13;102964.13;;;22.89;25.43
41513;BME280;27244;59.940;30.280;2023-05-07T07:36:42;102971.81;;;22.92;25.31
41513;BME280;27244;59.940;30.280;2023-05-07T07:39:09;102964.94;;;22.93;25.27
41513;BME280;27244;59.940;30.280;2023-05-07T07:41:37;102977.44;;;22.92;25.12
41513;BME280;27244;59.940;30.280;2023-05-07T07:44:04;102976.22;;;22.93;25.07
41513;BME280;27244;59.940;30.280;2023-05-07T07:46:35;102971.38;;;22.94;24.81
41513;BME280;27244;59.940;30.280;2023-05-07T07:49:02;102967.41;;;22.95;24.91
41513;BME280;27244;59.940;30.280;2023-05-07T07:51:29;102967.03;;;22.96;24.74
41513;BME280;27244;59.940;30.280;2023-05-07T07:54:00;102963.00;;;22.97;24.57
41513;BME280;27244;59.940;30.280;2023-05-07T07:56:29;102960.56;;;22.96;24.62
41513;BME280;27244;59.940;30.280;2023-05-07T07:58:56;102964.56;;;22.95;24.60
41513;BME280;27244;59.940;30.280;2023-05-07T08:01:23;102962.56;;;22.95;24.58
41513;BME280;27244;59.940;30.280;2023-05-07T08:03:52;102951.63;;;22.87;24.54
41513;BME280;27244;59.940;30.280;2023-05-07T08:06:20;102958.94;;;22.95;24.45
41513;BME280;27244;59.940;30.280;2023-05-07T08:08:47;102963.38;;;22.96;24.56
41513;BME280;27244;59.940;30.280;2023-05-07T08:11:20;102967.44;;;22.98;24.64
41513;BME280;27244;59.940;30.280;2023-05-07T08:13:48;102955.75;;;22.96;24.27
41513;BME280;27244;59.940;30.280;2023-05-07T08:16:15;102967.03;;;22.96;24.56
41513;BME280;27244;59.940;30.280;2023-05-07T08:18:43;102962.94;;;22.94;29.51
41513;BME280;27244;59.940;30.280;2023-05-07T08:21:10;102950.50;;;22.95;29.21
41513;BME280;27244;59.940;30.280;2023-05-07T08:23:38;102959.38;;;22.97;27.18
41513;BME280;27244;59.940;30.280;2023-05-07T08:26:07;102965.03;;;22.97;27.61
41513;BME280;27244;59.940;30.280;2023-05-07T08:28:37;102962.19;;;22.97;26.60
41513;BME280;27244;59.940;30.280;2023-05-07T08:31:05;102956.56;;;22.97;26.31
41513;BME280;27244;59.940;30.280;2023-05-07T08:33:35;102954.16;;;22.99;26.02
41513;BME280;27244;59.940;30.280;2023-05-07T08:36:04;102953.34;;;22.98;25.77
41513;BME280;27244;59.940;30.280;2023-05-07T08:38:31;102954.16;;;22.99;25.82
41513;BME280;27244;59.940;30.280;2023-05-07T08:41:01;102952.16;;;22.99;25.66
41513;BME280;27244;59.940;30.280;2023-05-07T08:43:35;102954.22;;;23.02;25.56
41513;BME280;27244;59.940;30.280;2023-05-07T08:46:04;102957.03;;;23.02;25.43
41513;BME280;27244;59.940;30.280;2023-05-07T08:48:35;102948.16;;;23.00;25.48
41513;BME280;27244;59.940;30.280;2023-05-07T08:51:11;102948.16;;;23.00;25.46
41513;BME280;27244;59.940;30.280;2023-05-07T08:53:40;102934.06;;;22.97;25.45
41513;BME280;27244;59.940;30.280;2023-05-07T08:56:11;102951.81;;;23.04;25.30
41513;BME280;27244;59.940;30.280;2023-05-07T08:58:38;102953.84;;;23.04;25.71
41513;BME280;27244;59.940;30.280;2023-05-07T09:01:08;102957.06;;;23.06;25.34
41513;BME280;27244;59.940;30.280;2023-05-07T09:03:37;102955.00;;;23.03;25.43
41513;BME280;27244;59.940;30.280;2023-05-07T09:06:05;102967.91;;;23.04;25.35
41513;BME280;27244;59.940;30.280;2023-05-07T09:08:33;102950.19;;;23.03;25.36
41513;BME280;27244;59.940;30.280;2023-05-07T09:11:02;102961.88;;;23.05;25.32
41513;BME280;27244;59.940;30.280;2023-05-07T09:13:29;102959.47;;;23.04;25.28
41513;BME280;27244;59.940;30.280;2023-05-07T09:15:57;102961.47;;;23.03;25.28
41513;BME280;27244;59.940;30.280;2023-05-07T09:18:26;102970.31;;;23.05;25.22
41513;BME280;27244;59.940;30.280;2023-05-07T09:20:55;102960.25;;;23.04;25.22
41513;BME280;27244;59.940;30.280;2023-05-07T09:23:22;102965.50;;;23.06;24.98
41513;BME280;27244;59.940;30.280;2023-05-07T09:25:49;102965.47;;;23.02;25.34
41513;BME280;27244;59.940;30.280;2023-05-07T09:28:23;102961.84;;;23.02;25.13
41513;BME280;27244;59.940;30.280;2023-05-07T09:30:51;102964.66;;;23.02;25.02
41513;BME280;27244;59.940;30.280;2023-05-07T09:33:19;102976.72;;;23.02;25.13
41513;BME280;27244;59.940;30.280;2023-05-07T09:35:52;102963.88;;;23.05;24.98
41513;BME280;27244;59.940;30.280;2023-05-07T09:38:21;102966.63;;;22.98;24.98
41513;BME280;27244;59.940;30.280;2023-05-07T09:41:02;102971.53;;;23.08;24.84
41513;BME280;27244;59.940;30.280;2023-05-07T09:43:32;102965.84;;;23.01;24.90
41513;BME280;27244;59.940;30.280;2023-05-07T09:46:03;102974.28;;;23.01;25.05
41513;BME280;27244;59.940;30.280;2023-05-07T09:48:36;102971.47;;;23.01;24.75
41513;BME280;27244;59.940;30.280;2023-05-07T09:51:11;102972.72;;;23.03;24.83
41513;BME280;27244;59.940;30.280;2023-05-07T09:53:41;102968.66;;;23.01;24.86
41513;BME280;27244;59.940;30.280;2023-05-07T09:56:13;102980.31;;;22.99;24.65
41513;BME280;27244;59.940;30.280;2023-05-07T09:58:41;102964.63;;;22.98;24.60
41513;BME280;27244;59.940;30.280;2023-05-07T10:01:10;102963.00;;;22.97;24.52
41513;BME280;27244;59.940;30.280;2023-05-07T10:03:40;102970.25;;;22.98;24.51
41513;BME280;27244;59.940;30.280;2023-05-07T10:06:12;102959.84;;;23.02;24.48
41513;BME280;27244;59.940;30.280;2023-05-07T10:08:40;102963.44;;;22.99;24.07
41513;BME280;27244;59.940;30.280;2023-05-07T10:11:07;102960.63;;;22.99;24.59
41513;BME280;27244;59.940;30.280;2023-05-07T10:13:36;102973.06;;;22.98;24.26
41513;BME280;27244;59.940;30.280;2023-05-07T10:16:05;102963.44;;;22.99;23.88
41513;BME280;27244;59.940;30.280;2023-05-07T10:18:40;102969.06;;;22.99;24.16
41513;BME280;27244;59.940;30.280;2023-05-07T10:21:17;102967.47;;;23.02;23.90
41513;BME280;27244;59.940;30.280;2023-05-07T10:23:46;102959.75;;;22.95;23.64
41513;BME280;27244;59.940;30.280;2023-05-07T10:26:15;102961.03;;;23.01;23.61
41513;BME280;27244;59.940;30.280;2023-05-07T10:28:47;102959.91;;;23.10;24.07
41513;BME280;27244;59.940;30.280;2023-05-07T10:31:41;102955.13;;;23.14;23.89
41513;BME280;27244;59.940;30.280;2023-05-07T10:34:15;102953.97;;;23.18;23.76
41513;BME280;27244;59.940;30.280;2023-05-07T10:36:47;102966.03;;;23.19;23.49
41513;BME280;27244;59.940;30.280;2023-05-07T10:39:16;102957.53;;;23.15;22.99
41513;BME280;27244;59.940;30.280;2023-05-07T10:41:43;102955.09;;;23.10;22.83
41513;BME280;27244;59.940;30.280;2023-05-07T10:44:10;102950.28;;;23.11;22.66
41513;BME280;27244;59.940;30.280;2023-05-07T10:46:41;102961.13;;;23.12;22.68
41513;BME280;27244;59.940;30.280;2023-05-07T10:49:18;102951.47;;;23.10;22.19
41513;BME280;27244;59.940;30.280;2023-05-07T10:52:13;102953.09;;;23.11;22.40
41513;BME280;27244;59.940;30.280;2023-05-07T10:55:18;102947.09;;;23.16;22.55
41513;BME280;27244;59.940;30.280;2023-05-07T10:58:23;102949.91;;;23.16;22.35
41513;BME280;27244;59.940;30.280;2023-05-07T11:00:59;102955.09;;;23.10;22.37
41513;BME280;27244;59.940;30.280;2023-05-07T11:03:32;102942.97;;;23.06;21.93
41513;BME280;27244;59.940;30.280;2023-05-07T11:06:10;102940.72;;;23.22;22.62
41513;BME280;27244;59.940;30.280;2023-05-07T11:09:03;102948.66;;;23.10;21.71
41513;BME280;27244;59.940;30.280;2023-05-07T11:11:44;102941.75;;;23.03;21.95
41513;BME280;27244;59.940;30.280;2023-05-07T11:14:42;102949.91;;;23.16;22.07
41513;BME280;27244;59.940;30.280;2023-05-07T11:17:16;102938.94;;;23.03;21.87
41513;BME280;27244;59.940;30.280;2023-05-07T11:19:53;102944.16;;;23.05;22.08
41513;BME280;27244;59.940;30.280;2023-05-07T11:22:39;102943.72;;;22.99;21.93
41513;BME280;27244;59.940;30.280;2023-05-07T11:25:25;102947.78;;;23.05;21.78
41513;BME280;27244;59.940;30.280;2023-05-07T11:28:05;102947.78;;;23.05;21.95
41513;BME280;27244;59.940;30.280;2023-05-07T11:30:33;102946.56;;;23.03;21.76
41513;BME280;27244;59.940;30.280;2023-05-07T11:33:01;102938.13;;;23.03;21.54
41513;BME280;27244;59.940;30.280;2023-05-07T11:35:29;102939.72;;;23.00;21.54
41513;BME280;27244;59.940;30.280;2023-05-07T11:37:59;102945.38;;;23.04;21.89
41513;BME280;27244;59.940;30.280;2023-05-07T11:40:29;102951.00;;;23.04;21.97
41513;BME280;27244;59.940;30.280;2023-05-07T11:42:56;102940.13;;;23.02;21.92
41513;BME280;27244;59.940;30.280;2023-05-07T11:45:24;102940.13;;;23.02;21.81
41513;BME280;27244;59.940;30.280;2023-05-07T11:47:51;102945.34;;;23.00;22.02
41513;BME280;27244;59.940;30.280;2023-05-07T11:50:18;102943.31;;;23.01;22.21
41513;BME280;27244;59.940;30.280;2023-05-07T11:52:50;102948.56;;;23.02;22.42
41513;BME280;27244;59.940;30.280;2023-05-07T11:55:18;102940.88;;;22.96;22.66
41513;BME280;27244;59.940;30.280;2023-05-07T11:57:47;102956.59;;;23.00;22.67
41513;BME280;27244;59.940;30.280;2023-05-07T12:00:16;102953.34;;;22.98;22.71
41513;BME280;27244;59.940;30.280;2023-05-07T12:02:43;102942.91;;;22.99;22.53
41513;BME280;27244;59.940;30.280;2023-05-07T12:05:12;102951.75;;;23.01;22.52
41513;BME280;27244;59.940;30.280;2023-05-07T12:07:39;102943.28;;;22.97;22.94
41513;BME280;27244;59.940;30.280;2023-05-07T12:10:06;102944.50;;;22.96;22.86
41513;BME280;27244;59.940;30.280;2023-05-07T12:12:38;102946.94;;;23.01;22.94
41513;BME280;27244;59.940;30.280;2023-05-07T12:15:08;102942.50;;;22.97;22.99
41513;BME280;27244;59.940;30.280;2023-05-07T12:17:36;102934.78;;;22.90;22.86
41513;BME280;27244;59.940;30.280;2023-05-07T12:20:04;102940.47;;;22.97;23.31
41513;BME280;27244;59.940;30.280;2023-05-07T12:22:31;102942.50;;;22.97;22.87
41513;BME280;27244;59.940;30.280;2023-05-07T12:24:59;102944.50;;;22.96;22.88
41513;BME280;27244;59.940;30.280;2023-05-07T12:27:26;102942.50;;;22.97;22.55
41513;BME280;27244;59.940;30.280;2023-05-07T12:29:53;102942.06;;;22.95;22.93
41513;BME280;27244;59.940;30.280;2023-05-07T12:32:21;102938.09;;;22.99;22.52
41513;BME280;27244;59.940;30.280;2023-05-07T12:34:50;102949.34;;;22.99;22.80
41513;BME280;27244;59.940;30.280;2023-05-07T12:37:23;102931.66;;;22.99;22.68
41513;BME280;27244;59.940;30.280;2023-05-07T12:40:04;102943.78;;;23.07;22.70
41513;BME280;27244;59.940;30.280;2023-05-07T12:42:32;102946.34;;;23.19;22.69
41513;BME280;27244;59.940;30.280;2023-05-07T12:44:59;102944.56;;;23.03;22.40
41513;BME280;27244;59.940;30.280;2023-05-07T12:47:29;102940.13;;;23.02;22.40
41513;BME280;27244;59.940;30.280;2023-05-07T12:49:56;102938.09;;;22.99;22.50
41513;BME280;27244;59.940;30.280;2023-05-07T12:52:23;102938.09;;;22.99;22.48